Time;durP1;ratioP1;P1;durP2;ratioP2;P2;SDS_P1;SDS_P2;PMS_P1;PMS_P2;Temp;Humidity;BMP_temperature;BMP_pressure;BME280_temperature;BME280_humidity;BME280_pressure;Samples;Min_cycle;Max_cycle;Signal;HPM_P1;HPM_P2
2023/07/18 00:00:17;;;;;;;;;2.67;2.00;;;;;;;;5080489;28;45511;-72
2023/07/18 00:02:42;;;;;;;;;5.00;3.33;;;;;;;;5080255;28;45382;-71
2023/07/18 00:05:12;;;;;;;;;3.00;2.67;;;;;;;;5080066;28;45327;-71
2023/07/18 00:07:37;;;;;;;;;3.67;3.00;;;;;;;;5079862;28;45203;-72
2023/07/18 00:10:03;;;;;;;;;4.00;4.00;;;;;;;;5079190;28;45279;-72
2023/07/18 00:12:28;;;;;;;;;5.33;5.00;;;;;;;;5080143;28;45271;-72
2023/07/18 00:14:53;;;;;;;;;5.67;4.67;;;;;;;;5079969;28;45204;-72
2023/07/18 00:17:18;;;;;;;;;3.33;3.33;;;;;;;;5080172;28;45319;-72
2023/07/18 00:19:44;;;;;;;;;6.00;6.00;;;;;;;;5080087;28;45256;-72
2023/07/18 00:22:09;;;;;;;;;5.00;4.00;;;;;;;;5079921;28;45373;-72
2023/07/18 00:24:34;;;;;;;;;2.00;2.00;;;;;;;;5061846;28;46054;-71
2023/07/18 00:26:59;;;;;;;;;3.33;3.33;;;;;;;;5079761;28;46587;-72
2023/07/18 00:29:25;;;;;;;;;3.33;3.33;;;;;;;;5071138;27;45361;-72
2023/07/18 00:31:50;;;;;;;;;5.33;4.00;;;;;;;;5100505;27;45351;-72
2023/07/18 00:34:15;;;;;;;;;3.33;3.33;;;;;;;;5080155;27;45514;-72
2023/07/18 00:36:40;;;;;;;;;5.00;5.00;;;;;;;;5078904;28;45634;-72
2023/07/18 00:39:06;;;;;;;;;4.67;4.00;;;;;;;;5079741;28;45456;-72
2023/07/18 00:41:31;;;;;;;;;5.67;3.33;;;;;;;;5061570;28;45387;-72
2023/07/18 00:43:56;;;;;;;;;1.33;1.33;;;;;;;;5079409;28;45343;-72
2023/07/18 00:46:21;;;;;;;;;2.00;2.00;;;;;;;;5079587;28;45455;-72
2023/07/18 00:48:46;;;;;;;;;4.00;4.00;;;;;;;;5061423;28;45842;-72
2023/07/18 00:51:12;;;;;;;;;3.00;3.00;;;;;;;;5079608;28;45373;-71
2023/07/18 00:53:38;;;;;;;;;4.33;3.00;;;;;;;;5079365;28;45374;-71
2023/07/18 00:56:04;;;;;;;;;3.00;3.00;;;;;;;;5079565;28;46126;-72
2023/07/18 00:58:30;;;;;;;;;2.00;2.00;;;;;;;;5079631;28;45393;-72
2023/07/18 01:00:56;;;;;;;;;3.33;3.33;;;;;;;;5079591;27;45315;-72
2023/07/18 01:03:22;;;;;;;;;6.33;4.00;;;;;;;;5082046;28;45485;-72
2023/07/18 01:05:47;;;;;;;;;3.00;3.00;;;;;;;;5064361;28;47572;-72
2023/07/18 01:08:12;;;;;;;;;4.00;3.00;;;;;;;;5082861;28;45249;-72
2023/07/18 01:10:38;;;;;;;;;3.33;2.33;;;;;;;;5082835;28;45407;-72
2023/07/18 01:13:03;;;;;;;;;2.00;2.00;;;;;;;;5081858;28;45220;-72
2023/07/18 01:15:29;;;;;;;;;4.00;4.00;;;;;;;;5081356;28;45749;-72
2023/07/18 01:17:55;;;;;;;;;4.33;3.00;;;;;;;;5083019;28;45215;-72
2023/07/18 01:20:26;;;;;;;;;2.33;2.33;;;;;;;;5064621;28;45700;-72
2023/07/18 01:22:53;;;;;;;;;2.67;2.33;;;;;;;;5082692;28;45233;-72
2023/07/18 01:25:19;;;;;;;;;5.00;5.00;;;;;;;;5082643;28;45445;-72
2023/07/18 01:27:44;;;;;;;;;4.33;3.33;;;;;;;;5064358;28;45815;-72
2023/07/18 01:30:10;;;;;;;;;3.33;3.00;;;;;;;;5098621;27;45277;-72
2023/07/18 01:32:35;;;;;;;;;3.33;3.00;;;;;;;;5103312;27;45302;-72
2023/07/18 01:35:02;;;;;;;;;3.33;2.33;;;;;;;;5101909;27;45386;-72
2023/07/18 01:37:27;;;;;;;;;4.00;2.67;;;;;;;;5102796;27;45388;-72
2023/07/18 01:39:52;;;;;;;;;4.00;4.00;;;;;;;;5084734;27;45344;-71
2023/07/18 01:42:19;;;;;;;;;6.00;3.00;;;;;;;;5102892;27;45404;-72
2023/07/18 01:44:44;;;;;;;;;3.00;2.00;;;;;;;;5102946;27;45529;-71
2023/07/18 01:47:09;;;;;;;;;3.33;2.67;;;;;;;;5102347;27;45396;-72
2023/07/18 01:49:35;;;;;;;;;6.33;3.33;;;;;;;;5103063;27;45289;-72
2023/07/18 01:52:00;;;;;;;;;3.00;3.00;;;;;;;;5102523;27;45464;-72
2023/07/18 01:54:27;;;;;;;;;3.67;2.67;;;;;;;;5102684;27;45456;-72
2023/07/18 01:56:52;;;;;;;;;3.00;3.00;;;;;;;;5102905;27;45219;-72
2023/07/18 01:59:17;;;;;;;;;4.00;2.67;;;;;;;;5102818;27;45286;-72
2023/07/18 02:01:42;;;;;;;;;4.00;4.00;;;;;;;;5102779;27;45253;-72
2023/07/18 02:04:07;;;;;;;;;4.00;2.00;;;;;;;;5102522;27;46477;-72
2023/07/18 02:06:33;;;;;;;;;4.00;2.00;;;;;;;;5101934;27;45223;-72
2023/07/18 02:08:58;;;;;;;;;4.67;4.00;;;;;;;;5084284;27;45260;-72
2023/07/18 02:11:23;;;;;;;;;2.67;2.67;;;;;;;;5102487;27;45437;-72
2023/07/18 02:13:48;;;;;;;;;3.00;3.00;;;;;;;;5083562;27;48240;-72
2023/07/18 02:16:13;;;;;;;;;5.67;3.00;;;;;;;;5102530;27;45405;-72
2023/07/18 02:18:39;;;;;;;;;2.00;2.00;;;;;;;;5084349;27;45306;-72
2023/07/18 02:21:04;;;;;;;;;4.00;2.67;;;;;;;;5102357;27;45193;-72
2023/07/18 02:23:29;;;;;;;;;2.00;2.00;;;;;;;;5101925;27;46289;-72
2023/07/18 02:25:55;;;;;;;;;3.67;3.67;;;;;;;;5102256;27;45352;-72
2023/07/18 02:28:20;;;;;;;;;5.00;5.00;;;;;;;;5083461;27;45540;-72
2023/07/18 02:30:45;;;;;;;;;2.00;2.00;;;;;;;;5081732;28;45636;-72
2023/07/18 02:33:10;;;;;;;;;2.00;2.00;;;;;;;;5081730;28;45346;-72
2023/07/18 02:35:36;;;;;;;;;3.00;3.00;;;;;;;;5081528;28;45391;-72
2023/07/18 02:38:01;;;;;;;;;2.00;2.00;;;;;;;;5081716;28;45375;-72
2023/07/18 02:40:26;;;;;;;;;2.00;1.33;;;;;;;;5063298;28;45951;-72
2023/07/18 02:42:52;;;;;;;;;4.00;3.00;;;;;;;;5081404;28;45477;-72
2023/07/18 02:45:17;;;;;;;;;3.00;2.00;;;;;;;;5063150;28;45348;-72
2023/07/18 02:47:42;;;;;;;;;3.00;3.00;;;;;;;;5063094;28;45450;-72
2023/07/18 02:50:08;;;;;;;;;5.00;4.00;;;;;;;;5081225;28;45355;-72
2023/07/18 02:52:33;;;;;;;;;4.00;3.00;;;;;;;;5062707;28;47234;-72
2023/07/18 02:54:59;;;;;;;;;4.00;3.67;;;;;;;;5081377;28;45316;-72
2023/07/18 02:57:24;;;;;;;;;2.00;2.00;;;;;;;;5081558;28;45457;-72
2023/07/18 02:59:49;;;;;;;;;3.33;2.67;;;;;;;;5081156;28;45287;-72
2023/07/18 03:02:15;;;;;;;;;3.00;3.00;;;;;;;;5080931;28;46123;-72
2023/07/18 03:04:41;;;;;;;;;2.00;2.00;;;;;;;;5080396;28;45380;-72
2023/07/18 03:07:07;;;;;;;;;4.33;3.33;;;;;;;;5080889;28;45221;-72
2023/07/18 03:09:34;;;;;;;;;5.00;4.00;;;;;;;;5080355;28;45440;-72
2023/07/18 03:12:00;;;;;;;;;2.67;2.67;;;;;;;;5062036;28;47277;-72
2023/07/18 03:14:25;;;;;;;;;4.00;4.00;;;;;;;;5080822;28;45285;-72
2023/07/18 03:16:50;;;;;;;;;3.00;3.00;;;;;;;;5062400;28;45623;-72
2023/07/18 03:19:15;;;;;;;;;4.00;4.00;;;;;;;;5080998;28;45391;-72
2023/07/18 03:21:41;;;;;;;;;3.00;3.00;;;;;;;;5080599;28;45432;-72
2023/07/18 03:24:07;;;;;;;;;3.33;3.33;;;;;;;;5080714;28;45438;-72
2023/07/18 03:26:33;;;;;;;;;2.00;2.00;;;;;;;;5080360;28;45423;-72
2023/07/18 03:28:58;;;;;;;;;3.33;2.33;;;;;;;;5086529;27;45399;-72
2023/07/18 03:31:23;;;;;;;;;3.00;3.00;;;;;;;;5101287;27;45352;-72
2023/07/18 03:33:48;;;;;;;;;3.00;2.00;;;;;;;;5101248;27;45460;-72
2023/07/18 03:36:14;;;;;;;;;2.67;2.00;;;;;;;;5101218;27;45384;-72
2023/07/18 03:38:39;;;;;;;;;2.00;2.00;;;;;;;;5082349;27;47357;-72
2023/07/18 03:41:04;;;;;;;;;2.33;2.00;;;;;;;;5100922;27;46417;-71
2023/07/18 03:43:30;;;;;;;;;3.00;3.00;;;;;;;;5100932;27;45346;-72
2023/07/18 03:45:55;;;;;;;;;4.67;2.33;;;;;;;;5101155;27;45566;-71
2023/07/18 03:48:22;;;;;;;;;1.67;1.67;;;;;;;;5100854;27;45223;-72
2023/07/18 03:50:47;;;;;;;;;4.00;4.00;;;;;;;;5100783;27;45931;-72
2023/07/18 03:53:12;;;;;;;;;4.00;4.00;;;;;;;;5100768;27;45275;-72
2023/07/18 03:55:37;;;;;;;;;3.33;3.33;;;;;;;;5101035;27;45504;-71
2023/07/18 03:58:03;;;;;;;;;6.33;6.00;;;;;;;;5082507;27;47095;-72
2023/07/18 04:00:28;;;;;;;;;5.00;5.00;;;;;;;;5100570;27;45341;-72
2023/07/18 04:02:54;;;;;;;;;4.00;3.00;;;;;;;;5068435;28;45289;-72
2023/07/18 04:05:19;;;;;;;;;4.00;4.00;;;;;;;;5080316;28;45295;-71
2023/07/18 04:07:45;;;;;;;;;7.33;5.00;;;;;;;;5080052;28;45247;-72
2023/07/18 04:10:11;;;;;;;;;5.00;4.00;;;;;;;;5080233;28;45533;-72
2023/07/18 04:12:37;;;;;;;;;3.67;3.67;;;;;;;;5061716;28;45453;-72
2023/07/18 04:15:02;;;;;;;;;2.33;2.33;;;;;;;;5080378;28;45357;-72
2023/07/18 04:17:27;;;;;;;;;5.67;5.00;;;;;;;;5080140;28;45401;-72
2023/07/18 04:19:57;;;;;;;;;3.67;3.00;;;;;;;;5061579;28;47905;-72
2023/07/18 04:22:22;;;;;;;;;2.33;2.33;;;;;;;;5079889;28;45256;-72
2023/07/18 04:24:48;;;;;;;;;4.00;4.00;;;;;;;;5080308;28;45214;-72
2023/07/18 04:27:13;;;;;;;;;6.00;4.67;;;;;;;;5061720;28;46082;-71
2023/07/18 04:29:38;;;;;;;;;4.33;3.67;;;;;;;;5091340;27;45338;-72
2023/07/18 04:32:03;;;;;;;;;4.33;4.33;;;;;;;;5100436;27;45293;-72
2023/07/18 04:34:29;;;;;;;;;4.00;3.33;;;;;;;;5100631;27;45269;-71
2023/07/18 04:36:54;;;;;;;;;5.67;5.67;;;;;;;;5099855;27;45230;-72
2023/07/18 04:39:19;;;;;;;;;32.67;29.00;;;;;;;;5100023;27;45261;-72
2023/07/18 04:41:44;;;;;;;;;15.67;15.00;;;;;;;;5081296;27;45317;-72
2023/07/18 04:44:09;;;;;;;;;9.00;8.00;;;;;;;;5081307;27;45520;-71
2023/07/18 04:46:34;;;;;;;;;10.00;9.00;;;;;;;;5099780;27;45207;-72
2023/07/18 04:49:00;;;;;;;;;26.67;26.33;;;;;;;;5081567;27;47490;-72
2023/07/18 04:51:25;;;;;;;;;14.33;14.00;;;;;;;;5099810;27;45400;-72
2023/07/18 04:53:50;;;;;;;;;2.00;2.00;;;;;;;;5082005;27;45367;-72
2023/07/18 04:56:16;;;;;;;;;34.00;29.33;;;;;;;;5081248;27;46354;-72
2023/07/18 04:58:41;;;;;;;;;50.00;41.33;;;;;;;;5096987;27;45369;-74
2023/07/18 05:01:08;;;;;;;;;25.67;25.67;;;;;;;;5054907;28;45454;-72
2023/07/18 05:03:33;;;;;;;;;13.00;12.67;;;;;;;;5057883;28;45402;-73
2023/07/18 05:05:58;;;;;;;;;5.00;5.00;;;;;;;;5059533;28;46042;-72
2023/07/18 05:08:23;;;;;;;;;2.00;2.00;;;;;;;;5058844;28;45392;-72
2023/07/18 05:10:49;;;;;;;;;6.00;5.67;;;;;;;;5059253;28;45327;-72
2023/07/18 05:13:14;;;;;;;;;10.00;5.00;;;;;;;;5041190;28;45382;-72
2023/07/18 05:15:43;;;;;;;;;3.67;3.67;;;;;;;;5068672;27;45496;-72
2023/07/18 05:18:09;;;;;;;;;4.67;3.67;;;;;;;;5060978;28;48120;-72
2023/07/18 05:20:34;;;;;;;;;4.00;4.00;;;;;;;;5060428;27;45292;-72
2023/07/18 05:22:59;;;;;;;;;7.00;4.67;;;;;;;;5071714;28;45487;-72
2023/07/18 05:25:25;;;;;;;;;3.67;3.67;;;;;;;;5078801;27;45465;-73
2023/07/18 05:27:50;;;;;;;;;72.25;64.00;;;;;;;;5060539;28;47539;-73
2023/07/18 05:30:17;;;;;;;;;39.33;32.00;;;;;;;;5078972;28;45362;-74
2023/07/18 05:32:42;;;;;;;;;11.33;11.33;;;;;;;;5079141;28;45323;-73
2023/07/18 05:35:11;;;;;;;;;25.67;23.00;;;;;;;;5078960;28;45346;-74
2023/07/18 05:37:36;;;;;;;;;68.00;57.50;;;;;;;;5078516;28;45398;-72
2023/07/18 05:40:03;;;;;;;;;93.75;85.75;;;;;;;;5059955;28;46051;-73
2023/07/18 05:42:28;;;;;;;;;132.00;120.50;;;;;;;;5078981;28;45229;-73
2023/07/18 05:44:53;;;;;;;;;104.00;94.50;;;;;;;;5078929;28;45230;-74
2023/07/18 05:47:18;;;;;;;;;76.00;67.25;;;;;;;;5078583;28;45430;-73
2023/07/18 05:49:44;;;;;;;;;73.00;60.75;;;;;;;;5063525;28;46334;-73
2023/07/18 05:52:09;;;;;;;;;59.25;47.50;;;;;;;;5082097;28;45287;-73
2023/07/18 05:54:34;;;;;;;;;19.33;19.00;;;;;;;;5082222;28;45260;-72
2023/07/18 05:56:59;;;;;;;;;9.00;7.67;;;;;;;;5082182;28;46196;-73
2023/07/18 05:59:25;;;;;;;;;3.33;3.33;;;;;;;;5082304;28;45529;-72
2023/07/18 06:01:51;;;;;;;;;2.67;2.67;;;;;;;;5064233;28;45419;-73
2023/07/18 06:04:16;;;;;;;;;4.00;3.00;;;;;;;;5082093;28;45460;-73
2023/07/18 06:06:42;;;;;;;;;3.67;2.67;;;;;;;;5081563;28;45470;-73
2023/07/18 06:09:07;;;;;;;;;2.00;2.00;;;;;;;;5082155;28;45377;-72
2023/07/18 06:11:33;;;;;;;;;8.00;4.33;;;;;;;;5082206;28;45465;-73
2023/07/18 06:13:59;;;;;;;;;3.00;3.00;;;;;;;;5082033;28;45461;-73
2023/07/18 06:16:25;;;;;;;;;2.67;2.33;;;;;;;;5081951;28;46360;-72
2023/07/18 06:18:52;;;;;;;;;1.33;1.33;;;;;;;;5082115;28;45162;-72
2023/07/18 06:21:17;;;;;;;;;4.00;4.00;;;;;;;;5063538;28;45281;-73
2023/07/18 06:23:43;;;;;;;;;5.67;5.67;;;;;;;;5081894;28;45533;-72
2023/07/18 06:26:08;;;;;;;;;3.67;3.67;;;;;;;;5063611;28;48155;-72
2023/07/18 06:28:33;;;;;;;;;5.67;5.33;;;;;;;;5065452;27;45319;-72
2023/07/18 06:30:58;;;;;;;;;12.33;11.00;;;;;;;;5102394;27;45225;-72
2023/07/18 06:33:23;;;;;;;;;44.33;36.33;;;;;;;;5083652;27;47448;-72
2023/07/18 06:35:56;;;;;;;;;14.67;13.67;;;;;;;;5101825;27;46106;-72
2023/07/18 06:38:21;;;;;;;;;76.50;67.75;;;;;;;;5102004;27;45321;-73
2023/07/18 06:40:47;;;;;;;;;13.33;13.33;;;;;;;;5101956;27;45161;-72
2023/07/18 06:43:12;;;;;;;;;4.67;4.33;;;;;;;;5077362;28;46240;-75
2023/07/18 06:45:38;;;;;;;;;7.00;5.00;;;;;;;;5060155;28;47003;-75
2023/07/18 06:48:03;;;;;;;;;10.67;9.00;;;;;;;;5061381;28;45208;-74
2023/07/18 06:50:28;;;;;;;;;14.67;12.00;;;;;;;;5062476;28;45195;-76
2023/07/18 06:52:54;;;;;;;;;7.00;5.33;;;;;;;;5061639;28;45591;-75
2023/07/18 06:55:19;;;;;;;;;20.67;19.00;;;;;;;;5061496;28;45376;-75
2023/07/18 06:57:44;;;;;;;;;20.67;18.33;;;;;;;;5059765;28;46250;-74
2023/07/18 07:00:11;;;;;;;;;5.67;5.00;;;;;;;;5063678;28;45229;-75
2023/07/18 07:02:36;;;;;;;;;8.00;6.33;;;;;;;;5074896;28;45467;-76
2023/07/18 07:05:02;;;;;;;;;66.50;56.25;;;;;;;;5074610;28;47667;-74
2023/07/18 07:07:27;;;;;;;;;21.00;20.67;;;;;;;;5075420;28;45385;-75
2023/07/18 07:09:52;;;;;;;;;3.33;3.33;;;;;;;;5066505;28;45278;-76
2023/07/18 07:12:17;;;;;;;;;5.00;5.00;;;;;;;;5059579;28;46103;-75
2023/07/18 07:14:42;;;;;;;;;18.67;18.33;;;;;;;;5064916;28;45486;-74
2023/07/18 07:17:08;;;;;;;;;9.67;8.00;;;;;;;;5067270;28;45344;-75
2023/07/18 07:19:33;;;;;;;;;4.00;4.00;;;;;;;;5066139;28;45381;-74
2023/07/18 07:21:58;;;;;;;;;4.00;2.33;;;;;;;;5064776;28;45349;-78
2023/07/18 07:24:24;;;;;;;;;7.33;7.33;;;;;;;;5064839;28;46062;-75
2023/07/18 07:26:50;;;;;;;;;104.00;94.00;;;;;;;;5063561;28;45335;-74
2023/07/18 07:29:15;;;;;;;;;40.33;32.33;;;;;;;;5068952;28;45437;-75
2023/07/18 07:31:41;;;;;;;;;6.33;6.00;;;;;;;;5080447;28;47498;-76
2023/07/18 07:34:06;;;;;;;;;5.00;5.00;;;;;;;;5071386;28;46371;-77
2023/07/18 07:36:33;;;;;;;;;14.33;14.33;;;;;;;;5059965;28;45180;-75
2023/07/18 07:38:58;;;;;;;;;88.75;81.75;;;;;;;;5060202;28;45327;-75
2023/07/18 07:41:24;;;;;;;;;51.33;40.67;;;;;;;;5057376;28;46080;-75
2023/07/18 07:43:50;;;;;;;;;52.00;42.00;;;;;;;;5072225;28;45713;-74
2023/07/18 07:46:15;;;;;;;;;4.33;3.33;;;;;;;;5078450;28;45366;-74
2023/07/18 07:48:40;;;;;;;;;5.67;3.67;;;;;;;;5078630;28;45906;-74
2023/07/18 07:51:06;;;;;;;;;4.33;3.00;;;;;;;;5060761;28;47098;-74
2023/07/18 07:53:31;;;;;;;;;4.33;3.67;;;;;;;;5079235;28;45708;-74
2023/07/18 07:55:56;;;;;;;;;2.33;2.33;;;;;;;;5079304;28;45433;-75
2023/07/18 07:58:21;;;;;;;;;6.00;4.33;;;;;;;;5080523;28;45340;-73
2023/07/18 08:00:47;;;;;;;;;10.00;9.00;;;;;;;;5061435;28;47715;-73
2023/07/18 08:03:12;;;;;;;;;100.75;95.25;;;;;;;;5080132;28;45350;-74
2023/07/18 08:05:37;;;;;;;;;106.75;97.00;;;;;;;;5061851;28;45969;-73
2023/07/18 08:08:03;;;;;;;;;6.00;5.00;;;;;;;;5057666;28;45547;-73
2023/07/18 08:10:28;;;;;;;;;5.00;4.00;;;;;;;;5078845;28;45517;-73
2023/07/18 08:12:53;;;;;;;;;13.67;13.67;;;;;;;;5079435;28;45440;-74
2023/07/18 08:15:19;;;;;;;;;23.67;20.33;;;;;;;;5064042;28;45286;-75
2023/07/18 08:17:44;;;;;;;;;50.33;41.33;;;;;;;;5063600;28;45314;-75
2023/07/18 08:20:10;;;;;;;;;6.67;6.67;;;;;;;;5058648;28;45381;-76
2023/07/18 08:22:35;;;;;;;;;7.00;5.00;;;;;;;;5040652;28;47528;-74
2023/07/18 08:25:01;;;;;;;;;3.33;3.00;;;;;;;;5059494;28;45178;-75
2023/07/18 08:27:26;;;;;;;;;3.00;3.00;;;;;;;;5058963;28;45283;-74
2023/07/18 08:29:53;;;;;;;;;3.00;3.00;;;;;;;;5085688;27;45517;-74
2023/07/18 08:32:18;;;;;;;;;6.00;4.00;;;;;;;;5100368;27;46742;-75
2023/07/18 08:34:44;;;;;;;;;66.75;55.75;;;;;;;;5094835;27;45230;-76
2023/07/18 08:37:09;;;;;;;;;23.67;21.33;;;;;;;;5077939;27;45196;-75
2023/07/18 08:39:35;;;;;;;;;8.67;6.00;;;;;;;;5084641;27;46512;-75
2023/07/18 08:42:04;;;;;;;;;4.00;4.00;;;;;;;;5102589;27;45392;-75
2023/07/18 08:44:29;;;;;;;;;4.00;4.00;;;;;;;;5085060;27;45163;-76
2023/07/18 08:46:55;;;;;;;;;3.67;3.67;;;;;;;;5079365;27;45489;-75
2023/07/18 08:49:23;;;;;;;;;3.33;3.33;;;;;;;;5077334;28;45419;-74
2023/07/18 08:51:48;;;;;;;;;3.00;3.00;;;;;;;;5060691;28;47325;-75
2023/07/18 08:54:13;;;;;;;;;1.33;1.33;;;;;;;;5079589;28;45401;-74
2023/07/18 08:56:43;;;;;;;;;1.67;0.00;;;;;;;;5078824;27;45428;-75
2023/07/18 08:59:09;;;;;;;;;5.00;3.00;;;;;;;;5062686;28;46237;-75
2023/07/18 09:01:35;;;;;;;;;3.67;3.67;;;;;;;;5081501;27;46334;-74
2023/07/18 09:04:00;;;;;;;;;2.33;2.33;;;;;;;;5081525;28;45324;-74
2023/07/18 09:06:25;;;;;;;;;3.00;3.00;;;;;;;;5079636;27;45385;-74
2023/07/18 09:08:54;;;;;;;;;3.00;3.00;;;;;;;;5079354;28;45451;-74
2023/07/18 09:11:19;;;;;;;;;3.00;3.00;;;;;;;;5061224;28;48068;-74
2023/07/18 09:13:45;;;;;;;;;3.67;2.00;;;;;;;;5080941;28;45312;-74
2023/07/18 09:16:20;;;;;;;;;2.00;2.00;;;;;;;;5086259;27;45483;-74
2023/07/18 09:18:51;;;;;;;;;1.00;1.00;;;;;;;;5081790;27;46197;-74
2023/07/18 09:21:17;;;;;;;;;2.00;2.00;;;;;;;;5099694;27;45562;-75
2023/07/18 09:23:43;;;;;;;;;2.33;2.00;;;;;;;;5101248;27;45486;-74
2023/07/18 09:26:10;;;;;;;;;3.00;2.33;;;;;;;;5083429;27;45442;-76
2023/07/18 09:28:36;;;;;;;;;2.67;2.67;;;;;;;;5069727;28;46114;-74
2023/07/18 09:31:01;;;;;;;;;1.67;1.33;;;;;;;;5085821;27;45563;-74
2023/07/18 09:33:26;;;;;;;;;2.00;2.00;;;;;;;;5083173;28;45390;-75
2023/07/18 09:35:55;;;;;;;;;2.00;2.00;;;;;;;;5083449;27;45307;-74
2023/07/18 09:38:21;;;;;;;;;3.00;2.33;;;;;;;;5082588;28;45245;-74
2023/07/18 09:40:46;;;;;;;;;4.33;2.33;;;;;;;;5083440;27;45432;-74
2023/07/18 09:43:12;;;;;;;;;2.00;2.00;;;;;;;;5083837;28;45313;-75
2023/07/18 09:45:38;;;;;;;;;2.25;2.25;;;;;;;;5086644;28;45423;-75
2023/07/18 09:48:03;;;;;;;;;3.33;3.00;;;;;;;;5079344;27;45386;-74
2023/07/18 09:50:32;;;;;;;;;2.00;2.00;;;;;;;;5063701;28;47075;-74
2023/07/18 09:52:59;;;;;;;;;2.00;2.00;;;;;;;;5084858;27;45473;-75
2023/07/18 09:55:26;;;;;;;;;3.67;3.67;;;;;;;;5067434;28;45378;-75
2023/07/18 09:57:53;;;;;;;;;3.67;3.67;;;;;;;;5085598;27;45364;-75
2023/07/18 10:00:19;;;;;;;;;3.00;3.00;;;;;;;;5086496;28;46408;-74
2023/07/18 10:02:45;;;;;;;;;6.33;5.33;;;;;;;;5082232;27;45348;-74
2023/07/18 10:05:10;;;;;;;;;10.33;8.33;;;;;;;;5082622;28;45319;-75
2023/07/18 10:07:39;;;;;;;;;2.00;2.00;;;;;;;;5085712;28;45402;-76
2023/07/18 10:10:07;;;;;;;;;2.50;2.00;;;;;;;;5089593;28;45325;-75
2023/07/18 10:12:36;;;;;;;;;3.50;3.50;;;;;;;;5072308;28;45268;-74
2023/07/18 10:15:03;;;;;;;;;0.50;0.50;;;;;;;;5088477;28;44903;-76
2023/07/18 10:17:32;;;;;;;;;2.75;2.75;;;;;;;;5085450;28;45269;-74
2023/07/18 10:19:57;;;;;;;;;1.75;1.75;;;;;;;;5090271;28;45282;-75
2023/07/18 10:22:29;;;;;;;;;4.25;4.25;;;;;;;;5085086;28;45635;-76
2023/07/18 10:25:05;;;;;;;;;1.75;1.75;;;;;;;;5093112;28;45322;-77
2023/07/18 10:27:43;;;;;;;;;4.67;3.67;;;;;;;;5072439;28;45975;-77
2023/07/18 10:30:10;;;;;;;;;7.33;7.33;;;;;;;;5098462;27;47701;-75
2023/07/18 10:32:37;;;;;;;;;5.33;5.33;;;;;;;;5108479;27;45211;-77
2023/07/18 10:35:10;;;;;;;;;4.33;3.00;;;;;;;;5066968;28;45499;-75
2023/07/18 10:37:36;;;;;;;;;2.50;2.50;;;;;;;;5073802;28;45458;-75
2023/07/18 10:40:03;;;;;;;;;3.00;2.00;;;;;;;;5081721;28;46408;-74
2023/07/18 10:42:30;;;;;;;;;5.50;4.00;;;;;;;;5081354;28;45397;-75
2023/07/18 10:44:59;;;;;;;;;4.33;2.00;;;;;;;;5081301;28;45290;-74
2023/07/18 10:47:26;;;;;;;;;2.00;1.67;;;;;;;;5065346;28;46253;-75
2023/07/18 10:49:51;;;;;;;;;1.00;1.00;;;;;;;;5085974;28;45314;-75
2023/07/18 10:52:17;;;;;;;;;4.67;3.00;;;;;;;;5084738;28;45461;-75
2023/07/18 10:54:42;;;;;;;;;81.00;77.25;;;;;;;;5084610;28;45313;-76
2023/07/18 10:57:09;;;;;;;;;2.00;2.00;;;;;;;;5084260;28;45543;-76
2023/07/18 10:59:36;;;;;;;;;3.00;3.00;;;;;;;;5064745;28;46645;-75
2023/07/18 11:02:01;;;;;;;;;3.00;3.00;;;;;;;;5082124;28;45215;-74
2023/07/18 11:04:28;;;;;;;;;5.00;5.00;;;;;;;;5080838;28;45286;-77
2023/07/18 11:06:54;;;;;;;;;4.33;3.00;;;;;;;;5080541;28;45631;-76
2023/07/18 11:09:19;;;;;;;;;3.00;2.00;;;;;;;;5081070;28;46311;-75
2023/07/18 11:11:44;;;;;;;;;2.00;2.00;;;;;;;;5081121;28;45359;-75
2023/07/18 11:14:09;;;;;;;;;1.50;1.50;;;;;;;;5081246;28;45234;-75
2023/07/18 11:16:36;;;;;;;;;4.00;3.00;;;;;;;;5080987;28;45510;-75
2023/07/18 11:19:02;;;;;;;;;1.67;1.00;;;;;;;;5081125;28;46037;-75
2023/07/18 11:21:28;;;;;;;;;2.33;2.33;;;;;;;;5078856;28;45422;-75
2023/07/18 11:23:54;;;;;;;;;6.00;6.00;;;;;;;;5081076;28;45300;-75
2023/07/18 11:26:19;;;;;;;;;4.00;3.33;;;;;;;;5080703;28;45484;-75
2023/07/18 11:28:49;;;;;;;;;3.00;3.00;;;;;;;;5083933;27;45354;-74
2023/07/18 11:31:24;;;;;;;;;5.00;5.00;;;;;;;;5100676;27;45279;-76
2023/07/18 11:33:53;;;;;;;;;39.67;33.67;;;;;;;;5101332;27;45506;-75
2023/07/18 11:36:20;;;;;;;;;45.67;36.00;;;;;;;;5100795;27;45389;-75
2023/07/18 11:38:47;;;;;;;;;65.00;58.25;;;;;;;;5100986;27;45337;-74
2023/07/18 11:41:31;;;;;;;;;15.33;14.00;;;;;;;;5082631;27;46133;-74
2023/07/18 11:43:56;;;;;;;;;2.67;2.67;;;;;;;;5101147;27;45186;-75
2023/07/18 11:46:33;;;;;;;;;1.33;1.33;;;;;;;;5081599;27;47168;-75
2023/07/18 11:48:58;;;;;;;;;2.67;2.67;;;;;;;;5100967;27;45502;-75
2023/07/18 11:51:25;;;;;;;;;4.33;4.00;;;;;;;;5100658;27;45314;-74
2023/07/18 11:53:51;;;;;;;;;65.75;56.50;;;;;;;;5082598;27;45376;-75
2023/07/18 11:56:16;;;;;;;;;6.67;5.00;;;;;;;;5081085;27;45692;-74
2023/07/18 11:58:42;;;;;;;;;5.00;5.00;;;;;;;;5074263;28;45535;-75
2023/07/18 12:01:07;;;;;;;;;6.00;6.00;;;;;;;;5062080;28;45299;-75
2023/07/18 12:03:32;;;;;;;;;4.00;4.00;;;;;;;;5060249;28;45367;-76
2023/07/18 12:05:57;;;;;;;;;15.00;15.00;;;;;;;;5079878;28;45344;-75
2023/07/18 12:08:22;;;;;;;;;13.33;13.33;;;;;;;;5061306;28;48328;-75
2023/07/18 12:10:48;;;;;;;;;3.00;2.67;;;;;;;;5079698;28;45334;-75
2023/07/18 12:13:13;;;;;;;;;2.00;2.00;;;;;;;;5079902;28;45329;-75
2023/07/18 12:15:38;;;;;;;;;3.33;3.00;;;;;;;;5080118;28;45479;-76
2023/07/18 12:18:03;;;;;;;;;2.67;2.67;;;;;;;;5079967;28;46048;-75
2023/07/18 12:20:29;;;;;;;;;2.00;2.00;;;;;;;;5079876;28;45278;-75
2023/07/18 12:22:54;;;;;;;;;3.00;3.00;;;;;;;;5080026;28;45323;-75
2023/07/18 12:25:19;;;;;;;;;1.00;1.00;;;;;;;;5061673;28;46289;-75
2023/07/18 12:27:44;;;;;;;;;3.75;3.25;;;;;;;;5079856;28;46227;-75
2023/07/18 12:30:12;;;;;;;;;3.75;2.50;;;;;;;;5079756;28;45333;-75
2023/07/18 12:32:37;;;;;;;;;1.50;1.00;;;;;;;;5080203;28;45284;-75
2023/07/18 12:35:02;;;;;;;;;2.00;1.50;;;;;;;;5079822;28;45210;-74
2023/07/18 12:37:28;;;;;;;;;2.00;2.00;;;;;;;;5079527;28;45239;-76
2023/07/18 12:39:53;;;;;;;;;1.75;1.00;;;;;;;;5079776;28;45501;-74
2023/07/18 12:42:18;;;;;;;;;4.75;4.50;;;;;;;;5079614;28;45336;-74
2023/07/18 12:44:47;;;;;;;;;2.00;1.00;;;;;;;;5079712;28;45145;-76
2023/07/18 12:47:12;;;;;;;;;1.00;1.00;;;;;;;;5061024;28;48319;-76
2023/07/18 12:49:38;;;;;;;;;4.00;3.50;;;;;;;;5061493;28;45311;-76
2023/07/18 12:52:04;;;;;;;;;2.50;2.50;;;;;;;;5079520;28;45376;-75
2023/07/18 12:54:29;;;;;;;;;3.00;2.75;;;;;;;;5079558;28;45303;-76
2023/07/18 12:56:55;;;;;;;;;4.00;4.00;;;;;;;;5061575;28;47206;-76
2023/07/18 12:59:20;;;;;;;;;5.00;3.50;;;;;;;;5082189;28;45498;-75
2023/07/18 13:01:45;;;;;;;;;2.50;2.50;;;;;;;;5083268;28;45315;-75
2023/07/18 13:04:10;;;;;;;;;12.67;12.67;;;;;;;;5083198;28;45293;-75
2023/07/18 13:06:36;;;;;;;;;9.33;7.00;;;;;;;;5082734;28;45516;-76
2023/07/18 13:09:02;;;;;;;;;2.25;2.25;;;;;;;;5083233;28;45214;-75
2023/07/18 13:11:27;;;;;;;;;3.00;3.00;;;;;;;;5083103;28;45347;-75
2023/07/18 13:13:53;;;;;;;;;1.00;1.00;;;;;;;;5083117;28;45264;-75
2023/07/18 13:16:18;;;;;;;;;2.00;0.75;;;;;;;;5082999;28;46004;-75
2023/07/18 13:18:43;;;;;;;;;26.67;25.67;;;;;;;;5082919;28;45178;-76
2023/07/18 13:21:08;;;;;;;;;10.00;9.33;;;;;;;;5082643;28;45526;-75
2023/07/18 13:23:33;;;;;;;;;1.00;1.00;;;;;;;;5082814;28;45554;-76
2023/07/18 13:25:59;;;;;;;;;3.25;3.25;;;;;;;;5064499;28;47232;-74
2023/07/18 13:28:24;;;;;;;;;2.00;2.00;;;;;;;;5083960;27;45280;-75
2023/07/18 13:30:49;;;;;;;;;6.75;4.75;;;;;;;;5085135;27;45326;-77
2023/07/18 13:33:14;;;;;;;;;2.00;2.00;;;;;;;;5084725;27;47079;-76
2023/07/18 13:35:40;;;;;;;;;11.67;11.33;;;;;;;;5084589;27;47192;-78
2023/07/18 13:38:05;;;;;;;;;0.00;0.00;;;;;;;;5103030;27;45413;-78
2023/07/18 13:40:30;;;;;;;;;1.25;1.25;;;;;;;;5085110;27;45301;-77
2023/07/18 13:42:55;;;;;;;;;2.00;2.00;;;;;;;;5102910;27;45294;-78
2023/07/18 13:45:24;;;;;;;;;2.00;2.00;;;;;;;;5103092;27;45514;-78
2023/07/18 13:47:49;;;;;;;;;0.67;0.67;;;;;;;;5084208;27;45347;-78
2023/07/18 13:50:15;;;;;;;;;53.67;44.67;;;;;;;;5084298;27;45312;-78
2023/07/18 13:52:40;;;;;;;;;4.00;4.00;;;;;;;;5102802;27;45297;-78
2023/07/18 13:55:06;;;;;;;;;2.25;2.25;;;;;;;;5102687;27;45262;-77
2023/07/18 13:57:31;;;;;;;;;1.00;1.00;;;;;;;;5102955;27;45309;-75
2023/07/18 13:59:56;;;;;;;;;42.67;33.67;;;;;;;;5084500;27;45763;-76
2023/07/18 14:02:22;;;;;;;;;8.33;8.33;;;;;;;;5084396;27;47211;-77
2023/07/18 14:04:48;;;;;;;;;4.00;4.00;;;;;;;;5083108;27;45465;-80
2023/07/18 14:07:19;;;;;;;;;1.75;1.75;;;;;;;;5063115;28;45970;-78
2023/07/18 14:09:44;;;;;;;;;3.00;3.00;;;;;;;;5062272;28;45376;-76
2023/07/18 14:12:11;;;;;;;;;2.50;2.50;;;;;;;;5081399;28;45288;-75
2023/07/18 14:14:37;;;;;;;;;2.75;1.75;;;;;;;;5063224;28;47393;-78
2023/07/18 14:17:02;;;;;;;;;1.25;1.25;;;;;;;;5081186;28;45129;-76
2023/07/18 14:19:27;;;;;;;;;2.00;1.50;;;;;;;;5083704;27;45467;-76
2023/07/18 14:21:52;;;;;;;;;5.75;5.75;;;;;;;;5060813;28;45739;-75
2023/07/18 14:24:18;;;;;;;;;1.50;1.00;;;;;;;;5081345;27;45145;-76
2023/07/18 14:26:44;;;;;;;;;2.00;2.00;;;;;;;;5063346;28;45221;-76
2023/07/18 14:29:09;;;;;;;;;3.00;1.75;;;;;;;;5085262;27;45214;-77